sensor_id;sensor_type;location;lat;lon;timestamp;temperature;humidity
70839;DHT22;58464;52.298;4.852;2022-11-15T00:01:16;7.31;91.52
70839;DHT22;58464;52.298;4.852;2022-11-15T00:03:43;7.28;91.55
70839;DHT22;58464;52.298;4.852;2022-11-15T00:06:09;7.34;91.47
70839;DHT22;58464;52.298;4.852;2022-11-15T00:08:34;7.36;91.74
70839;DHT22;58464;52.298;4.852;2022-11-15T00:11:02;7.32;91.64
70839;DHT22;58464;52.298;4.852;2022-11-15T00:13:28;7.36;91.72
70839;DHT22;58464;52.298;4.852;2022-11-15T00:15:57;7.36;91.58
70839;DHT22;58464;52.298;4.852;2022-11-15T00:18:23;7.38;91.48
70839;DHT22;58464;52.298;4.852;2022-11-15T00:20:48;7.35;91.62
70839;DHT22;58464;52.298;4.852;2022-11-15T00:23:14;7.39;91.92
70839;DHT22;58464;52.298;4.852;2022-11-15T00:25:39;7.45;91.74
70839;DHT22;58464;52.298;4.852;2022-11-15T00:28:04;7.43;91.55
70839;DHT22;58464;52.298;4.852;2022-11-15T00:30:30;7.52;91.66
70839;DHT22;58464;52.298;4.852;2022-11-15T00:32:55;7.49;91.72
70839;DHT22;58464;52.298;4.852;2022-11-15T00:35:21;7.55;91.88
70839;DHT22;58464;52.298;4.852;2022-11-15T00:37:47;7.55;91.98
70839;DHT22;58464;52.298;4.852;2022-11-15T00:40:13;7.52;92.04
70839;DHT22;58464;52.298;4.852;2022-11-15T00:42:39;7.48;92.06
70839;DHT22;58464;52.298;4.852;2022-11-15T00:45:05;7.53;92.38
70839;DHT22;58464;52.298;4.852;2022-11-15T00:47:31;7.55;92.37
70839;DHT22;58464;52.298;4.852;2022-11-15T00:49:56;7.55;92.18
70839;DHT22;58464;52.298;4.852;2022-11-15T00:52:22;7.52;92.47
70839;DHT22;58464;52.298;4.852;2022-11-15T00:54:47;7.49;92.55
70839;DHT22;58464;52.298;4.852;2022-11-15T00:57:12;7.52;92.69
70839;DHT22;58464;52.298;4.852;2022-11-15T00:59:38;7.53;92.59
70839;DHT22;58464;52.298;4.852;2022-11-15T01:02:03;7.65;92.74
70839;DHT22;58464;52.298;4.852;2022-11-15T01:04:28;7.67;92.53
70839;DHT22;58464;52.298;4.852;2022-11-15T01:06:54;7.63;92.56
70839;DHT22;58464;52.298;4.852;2022-11-15T01:09:19;7.63;92.64
70839;DHT22;58464;52.298;4.852;2022-11-15T01:11:45;7.61;92.56
70839;DHT22;58464;52.298;4.852;2022-11-15T01:14:10;7.59;92.82
70839;DHT22;58464;52.298;4.852;2022-11-15T01:16:35;7.58;93.12
70839;DHT22;58464;52.298;4.852;2022-11-15T01:19:01;7.59;93.05
70839;DHT22;58464;52.298;4.852;2022-11-15T01:21:26;7.59;93.06
70839;DHT22;58464;52.298;4.852;2022-11-15T01:23:56;7.63;93.20
70839;DHT22;58464;52.298;4.852;2022-11-15T01:26:22;7.63;93.20
70839;DHT22;58464;52.298;4.852;2022-11-15T01:28:48;7.65;93.28
70839;DHT22;58464;52.298;4.852;2022-11-15T01:31:17;7.62;93.34
70839;DHT22;58464;52.298;4.852;2022-11-15T01:33:43;7.66;93.29
70839;DHT22;58464;52.298;4.852;2022-11-15T01:36:12;7.70;93.29
70839;DHT22;58464;52.298;4.852;2022-11-15T01:38:38;7.76;93.24
70839;DHT22;58464;52.298;4.852;2022-11-15T01:41:04;7.73;93.41
70839;DHT22;58464;52.298;4.852;2022-11-15T01:43:35;7.73;93.54
70839;DHT22;58464;52.298;4.852;2022-11-15T01:46:05;7.74;93.43
70839;DHT22;58464;52.298;4.852;2022-11-15T01:48:35;7.77;93.35
70839;DHT22;58464;52.298;4.852;2022-11-15T01:51:04;7.79;93.52
70839;DHT22;58464;52.298;4.852;2022-11-15T01:53:33;7.80;93.30
70839;DHT22;58464;52.298;4.852;2022-11-15T01:56:02;7.87;93.71
70839;DHT22;58464;52.298;4.852;2022-11-15T01:58:29;7.86;93.52
70839;DHT22;58464;52.298;4.852;2022-11-15T02:00:55;7.83;93.78
70839;DHT22;58464;52.298;4.852;2022-11-15T02:03:22;7.84;93.76
70839;DHT22;58464;52.298;4.852;2022-11-15T02:05:50;7.91;93.86
70839;DHT22;58464;52.298;4.852;2022-11-15T02:08:16;7.98;94.23
70839;DHT22;58464;52.298;4.852;2022-11-15T02:10:46;7.98;94.11
70839;DHT22;58464;52.298;4.852;2022-11-15T02:13:15;8.04;93.96
70839;DHT22;58464;52.298;4.852;2022-11-15T02:18:36;8.10;93.82
70839;DHT22;58464;52.298;4.852;2022-11-15T02:24:11;8.14;94.43
70839;DHT22;58464;52.298;4.852;2022-11-15T02:26:55;8.15;94.48
70839;DHT22;58464;52.298;4.852;2022-11-15T02:29:47;8.14;94.38
70839;DHT22;58464;52.298;4.852;2022-11-15T02:32:21;8.27;94.36
70839;DHT22;58464;52.298;4.852;2022-11-15T02:38:38;8.37;94.43
70839;DHT22;58464;52.298;4.852;2022-11-15T02:41:07;8.38;94.26
70839;DHT22;58464;52.298;4.852;2022-11-15T02:43:51;8.37;94.42
70839;DHT22;58464;52.298;4.852;2022-11-15T02:46:27;8.42;94.40
70839;DHT22;58464;52.298;4.852;2022-11-15T02:49:15;8.49;94.59
70839;DHT22;58464;52.298;4.852;2022-11-15T02:51:42;8.55;94.36
70839;DHT22;58464;52.298;4.852;2022-11-15T02:54:14;8.52;94.61
70839;DHT22;58464;52.298;4.852;2022-11-15T02:56:42;8.55;94.53
70839;DHT22;58464;52.298;4.852;2022-11-15T02:59:20;8.59;94.42
70839;DHT22;58464;52.298;4.852;2022-11-15T03:10:08;8.65;94.75
70839;DHT22;58464;52.298;4.852;2022-11-15T03:12:50;8.66;94.90
70839;DHT22;58464;52.298;4.852;2022-11-15T03:15:41;8.71;95.15
70839;DHT22;58464;52.298;4.852;2022-11-15T03:18:20;8.76;94.94
70839;DHT22;58464;52.298;4.852;2022-11-15T03:20:48;8.76;95.07
70839;DHT22;58464;52.298;4.852;2022-11-15T03:23:14;8.77;95.09
70839;DHT22;58464;52.298;4.852;2022-11-15T03:25:50;8.83;95.05
70839;DHT22;58464;52.298;4.852;2022-11-15T03:28:20;8.82;95.03
70839;DHT22;58464;52.298;4.852;2022-11-15T03:30:49;8.83;95.11
70839;DHT22;58464;52.298;4.852;2022-11-15T03:33:16;8.86;95.20
70839;DHT22;58464;52.298;4.852;2022-11-15T03:35:44;8.89;95.25
70839;DHT22;58464;52.298;4.852;2022-11-15T03:40:40;8.93;95.33
70839;DHT22;58464;52.298;4.852;2022-11-15T03:43:24;8.99;95.28
70839;DHT22;58464;52.298;4.852;2022-11-15T03:46:15;9.06;95.48
70839;DHT22;58464;52.298;4.852;2022-11-15T03:48:44;9.03;95.21
70839;DHT22;58464;52.298;4.852;2022-11-15T03:51:12;9.06;95.13
70839;DHT22;58464;52.298;4.852;2022-11-15T03:53:38;9.13;95.04
70839;DHT22;58464;52.298;4.852;2022-11-15T03:56:05;9.16;95.30
70839;DHT22;58464;52.298;4.852;2022-11-15T03:58:30;9.22;95.12
70839;DHT22;58464;52.298;4.852;2022-11-15T04:00:56;9.26;95.25
70839;DHT22;58464;52.298;4.852;2022-11-15T04:03:21;9.38;94.90
70839;DHT22;58464;52.298;4.852;2022-11-15T04:05:47;9.37;94.88
70839;DHT22;58464;52.298;4.852;2022-11-15T04:08:13;9.41;95.09
70839;DHT22;58464;52.298;4.852;2022-11-15T04:10:39;9.43;95.17
70839;DHT22;58464;52.298;4.852;2022-11-15T04:13:04;9.50;95.40
70839;DHT22;58464;52.298;4.852;2022-11-15T04:15:29;9.50;95.04
70839;DHT22;58464;52.298;4.852;2022-11-15T04:17:56;9.51;95.03
70839;DHT22;58464;52.298;4.852;2022-11-15T04:20:27;9.55;94.78
70839;DHT22;58464;52.298;4.852;2022-11-15T04:23:17;9.61;95.05
70839;DHT22;58464;52.298;4.852;2022-11-15T04:26:04;9.70;94.98
70839;DHT22;58464;52.298;4.852;2022-11-15T04:28:29;9.77;95.16
70839;DHT22;58464;52.298;4.852;2022-11-15T04:30:55;9.75;94.71
70839;DHT22;58464;52.298;4.852;2022-11-15T04:33:21;9.75;94.72
70839;DHT22;58464;52.298;4.852;2022-11-15T04:35:47;9.86;94.48
70839;DHT22;58464;52.298;4.852;2022-11-15T04:38:32;9.92;94.69
70839;DHT22;58464;52.298;4.852;2022-11-15T04:40:58;9.91;94.56
70839;DHT22;58464;52.298;4.852;2022-11-15T04:43:23;9.99;94.50
70839;DHT22;58464;52.298;4.852;2022-11-15T04:45:48;9.99;94.41
70839;DHT22;58464;52.298;4.852;2022-11-15T04:48:15;10.03;94.48
70839;DHT22;58464;52.298;4.852;2022-11-15T04:50:41;10.03;94.30
70839;DHT22;58464;52.298;4.852;2022-11-15T04:53:06;10.08;94.38
70839;DHT22;58464;52.298;4.852;2022-11-15T04:55:31;10.23;94.51
70839;DHT22;58464;52.298;4.852;2022-11-15T04:58:01;10.17;94.00
70839;DHT22;58464;52.298;4.852;2022-11-15T05:00:28;10.19;93.89
70839;DHT22;58464;52.298;4.852;2022-11-15T05:02:54;10.24;93.91
70839;DHT22;58464;52.298;4.852;2022-11-15T05:05:38;10.28;93.93
70839;DHT22;58464;52.298;4.852;2022-11-15T05:08:04;10.29;93.85
70839;DHT22;58464;52.298;4.852;2022-11-15T05:10:29;10.26;93.76
70839;DHT22;58464;52.298;4.852;2022-11-15T05:12:55;10.29;93.86
70839;DHT22;58464;52.298;4.852;2022-11-15T05:15:20;10.32;93.97
70839;DHT22;58464;52.298;4.852;2022-11-15T05:17:47;10.34;93.73
70839;DHT22;58464;52.298;4.852;2022-11-15T05:20:13;10.46;93.90
70839;DHT22;58464;52.298;4.852;2022-11-15T05:22:38;10.43;93.69
70839;DHT22;58464;52.298;4.852;2022-11-15T05:25:05;10.44;93.55
70839;DHT22;58464;52.298;4.852;2022-11-15T05:27:30;10.44;93.54
70839;DHT22;58464;52.298;4.852;2022-11-15T05:29:55;10.50;93.63
70839;DHT22;58464;52.298;4.852;2022-11-15T05:32:21;10.53;93.45
70839;DHT22;58464;52.298;4.852;2022-11-15T05:34:47;10.52;93.32
70839;DHT22;58464;52.298;4.852;2022-11-15T05:37:13;10.57;93.37
70839;DHT22;58464;52.298;4.852;2022-11-15T05:39:39;10.59;93.25
70839;DHT22;58464;52.298;4.852;2022-11-15T05:42:13;10.54;93.27
70839;DHT22;58464;52.298;4.852;2022-11-15T05:44:44;10.56;93.30
70839;DHT22;58464;52.298;4.852;2022-11-15T05:47:15;10.57;93.21
70839;DHT22;58464;52.298;4.852;2022-11-15T05:49:43;10.57;93.39
70839;DHT22;58464;52.298;4.852;2022-11-15T05:52:11;10.63;93.56
70839;DHT22;58464;52.298;4.852;2022-11-15T05:54:40;10.60;93.38
70839;DHT22;58464;52.298;4.852;2022-11-15T05:57:06;10.67;93.47
70839;DHT22;58464;52.298;4.852;2022-11-15T05:59:32;10.70;93.19
70839;DHT22;58464;52.298;4.852;2022-11-15T06:01:58;10.74;93.22
70839;DHT22;58464;52.298;4.852;2022-11-15T06:04:23;10.80;93.19
70839;DHT22;58464;52.298;4.852;2022-11-15T06:06:49;10.70;93.00
70839;DHT22;58464;52.298;4.852;2022-11-15T06:09:14;10.74;92.87
70839;DHT22;58464;52.298;4.852;2022-11-15T06:11:40;10.78;93.04
70839;DHT22;58464;52.298;4.852;2022-11-15T06:14:05;10.77;93.07
70839;DHT22;58464;52.298;4.852;2022-11-15T06:16:31;10.75;92.86
70839;DHT22;58464;52.298;4.852;2022-11-15T06:18:59;10.74;92.82
70839;DHT22;58464;52.298;4.852;2022-11-15T06:21:24;10.74;92.77
70839;DHT22;58464;52.298;4.852;2022-11-15T06:23:53;10.67;92.82
70839;DHT22;58464;52.298;4.852;2022-11-15T06:26:18;10.61;93.05
70839;DHT22;58464;52.298;4.852;2022-11-15T06:28:43;10.65;93.50
70839;DHT22;58464;52.298;4.852;2022-11-15T06:31:10;10.53;93.33
70839;DHT22;58464;52.298;4.852;2022-11-15T06:33:37;10.52;93.47
70839;DHT22;58464;52.298;4.852;2022-11-15T06:36:03;10.56;93.71
70839;DHT22;58464;52.298;4.852;2022-11-15T06:38:29;10.54;93.52
70839;DHT22;58464;52.298;4.852;2022-11-15T06:41:01;10.57;93.46
70839;DHT22;58464;52.298;4.852;2022-11-15T06:43:27;10.54;93.77
70839;DHT22;58464;52.298;4.852;2022-11-15T06:45:52;10.53;93.50
70839;DHT22;58464;52.298;4.852;2022-11-15T06:48:17;10.53;93.47
70839;DHT22;58464;52.298;4.852;2022-11-15T06:50:43;10.52;93.79
70839;DHT22;58464;52.298;4.852;2022-11-15T06:53:14;10.50;93.81
70839;DHT22;58464;52.298;4.852;2022-11-15T06:55:40;10.56;94.04
70839;DHT22;58464;52.298;4.852;2022-11-15T06:58:05;10.53;93.58
70839;DHT22;58464;52.298;4.852;2022-11-15T07:00:31;10.49;93.67
70839;DHT22;58464;52.298;4.852;2022-11-15T07:02:59;10.54;94.03
70839;DHT22;58464;52.298;4.852;2022-11-15T07:05:25;10.43;93.95
70839;DHT22;58464;52.298;4.852;2022-11-15T07:07:51;10.44;93.82
70839;DHT22;58464;52.298;4.852;2022-11-15T07:10:17;10.46;93.90
70839;DHT22;58464;52.298;4.852;2022-11-15T07:12:46;10.50;93.91
70839;DHT22;58464;52.298;4.852;2022-11-15T07:15:12;10.49;93.92
70839;DHT22;58464;52.298;4.852;2022-11-15T07:17:38;10.47;93.64
70839;DHT22;58464;52.298;4.852;2022-11-15T07:20:04;10.56;93.82
70839;DHT22;58464;52.298;4.852;2022-11-15T07:22:30;10.59;93.51
70839;DHT22;58464;52.298;4.852;2022-11-15T07:24:55;10.61;93.69
70839;DHT22;58464;52.298;4.852;2022-11-15T07:27:20;10.49;93.45
70839;DHT22;58464;52.298;4.852;2022-11-15T07:29:46;10.57;93.43
70839;DHT22;58464;52.298;4.852;2022-11-15T07:32:11;10.57;93.39
70839;DHT22;58464;52.298;4.852;2022-11-15T07:34:37;10.56;93.31
70839;DHT22;58464;52.298;4.852;2022-11-15T07:37:02;10.54;93.52
70839;DHT22;58464;52.298;4.852;2022-11-15T07:39:30;10.52;93.36
70839;DHT22;58464;52.298;4.852;2022-11-15T07:41:56;10.54;93.39
70839;DHT22;58464;52.298;4.852;2022-11-15T07:44:41;10.47;93.14
70839;DHT22;58464;52.298;4.852;2022-11-15T07:47:06;10.44;93.35
70839;DHT22;58464;52.298;4.852;2022-11-15T07:49:32;10.47;93.07
70839;DHT22;58464;52.298;4.852;2022-11-15T07:51:57;10.59;93.18
70839;DHT22;58464;52.298;4.852;2022-11-15T07:54:23;10.56;92.88
70839;DHT22;58464;52.298;4.852;2022-11-15T07:56:48;10.61;92.74
70839;DHT22;58464;52.298;4.852;2022-11-15T07:59:13;10.57;92.58
70839;DHT22;58464;52.298;4.852;2022-11-15T08:01:39;10.52;92.54
70839;DHT22;58464;52.298;4.852;2022-11-15T08:04:04;10.56;92.57
70839;DHT22;58464;52.298;4.852;2022-11-15T08:06:29;10.56;92.60
70839;DHT22;58464;52.298;4.852;2022-11-15T08:08:55;10.52;92.29
70839;DHT22;58464;52.298;4.852;2022-11-15T08:11:20;10.59;92.43
70839;DHT22;58464;52.298;4.852;2022-11-15T08:13:46;10.54;92.07
70839;DHT22;58464;52.298;4.852;2022-11-15T08:16:11;10.56;92.09
70839;DHT22;58464;52.298;4.852;2022-11-15T08:18:37;10.65;91.92
70839;DHT22;58464;52.298;4.852;2022-11-15T08:21:03;10.68;91.56
70839;DHT22;58464;52.298;4.852;2022-11-15T08:23:29;10.73;91.56
70839;DHT22;58464;52.298;4.852;2022-11-15T08:26:02;10.78;91.59
70839;DHT22;58464;52.298;4.852;2022-11-15T08:28:30;10.84;91.48
70839;DHT22;58464;52.298;4.852;2022-11-15T08:30:56;10.91;91.30
70839;DHT22;58464;52.298;4.852;2022-11-15T08:33:21;11.04;90.94
70839;DHT22;58464;52.298;4.852;2022-11-15T08:35:48;11.08;90.53
70839;DHT22;58464;52.298;4.852;2022-11-15T08:38:14;11.18;90.18
70839;DHT22;58464;52.298;4.852;2022-11-15T08:40:40;11.22;90.16
70839;DHT22;58464;52.298;4.852;2022-11-15T08:43:05;11.29;89.77
70839;DHT22;58464;52.298;4.852;2022-11-15T08:45:31;11.33;89.45
70839;DHT22;58464;52.298;4.852;2022-11-15T08:48:02;11.52;89.23
70839;DHT22;58464;52.298;4.852;2022-11-15T08:50:28;11.53;88.93
70839;DHT22;58464;52.298;4.852;2022-11-15T08:52:53;11.59;88.73
70839;DHT22;58464;52.298;4.852;2022-11-15T08:55:19;11.67;88.60
70839;DHT22;58464;52.298;4.852;2022-11-15T08:57:44;11.72;88.28
70839;DHT22;58464;52.298;4.852;2022-11-15T09:00:11;11.70;88.18
70839;DHT22;58464;52.298;4.852;2022-11-15T09:02:39;11.69;88.20
70839;DHT22;58464;52.298;4.852;2022-11-15T09:05:05;11.69;88.03
70839;DHT22;58464;52.298;4.852;2022-11-15T09:07:31;11.73;87.89
70839;DHT22;58464;52.298;4.852;2022-11-15T09:09:57;11.80;87.53
70839;DHT22;58464;52.298;4.852;2022-11-15T09:12:24;11.86;87.19
70839;DHT22;58464;52.298;4.852;2022-11-15T09:14:50;11.86;87.02
70839;DHT22;58464;52.298;4.852;2022-11-15T09:17:16;11.98;86.69
70839;DHT22;58464;52.298;4.852;2022-11-15T09:19:41;12.04;86.40
70839;DHT22;58464;52.298;4.852;2022-11-15T09:22:07;12.16;86.15
70839;DHT22;58464;52.298;4.852;2022-11-15T09:24:34;12.31;85.51
70839;DHT22;58464;52.298;4.852;2022-11-15T09:27:00;12.22;85.13
70839;DHT22;58464;52.298;4.852;2022-11-15T09:29:25;12.34;85.02
70839;DHT22;58464;52.298;4.852;2022-11-15T09:31:54;12.45;84.37
70839;DHT22;58464;52.298;4.852;2022-11-15T09:34:19;12.59;84.19
70839;DHT22;58464;52.298;4.852;2022-11-15T09:36:46;12.56;83.98
70839;DHT22;58464;52.298;4.852;2022-11-15T09:39:11;12.78;83.35
70839;DHT22;58464;52.298;4.852;2022-11-15T09:44:45;12.92;82.08
70839;DHT22;58464;52.298;4.852;2022-11-15T09:50:21;13.00;81.64
70839;DHT22;58464;52.298;4.852;2022-11-15T09:52:52;13.13;80.90
70839;DHT22;58464;52.298;4.852;2022-11-15T09:55:17;13.16;80.45
70839;DHT22;58464;52.298;4.852;2022-11-15T10:02:56;13.10;79.91
70839;DHT22;58464;52.298;4.852;2022-11-15T10:05:25;13.04;80.53
70839;DHT22;58464;52.298;4.852;2022-11-15T10:08:28;12.88;80.02
70839;DHT22;58464;52.298;4.852;2022-11-15T10:11:01;12.82;80.79
70839;DHT22;58464;52.298;4.852;2022-11-15T10:13:33;12.97;80.24
70839;DHT22;58464;52.298;4.852;2022-11-15T10:16:12;12.76;80.38
70839;DHT22;58464;52.298;4.852;2022-11-15T10:18:52;12.75;80.57
70839;DHT22;58464;52.298;4.852;2022-11-15T10:23:48;13.06;79.28
70839;DHT22;58464;52.298;4.852;2022-11-15T10:26:16;13.09;79.15
70839;DHT22;58464;52.298;4.852;2022-11-15T10:28:42;13.11;78.84
70839;DHT22;58464;52.298;4.852;2022-11-15T10:31:26;13.21;78.09
70839;DHT22;58464;52.298;4.852;2022-11-15T10:34:18;13.10;77.94
70839;DHT22;58464;52.298;4.852;2022-11-15T10:36:57;13.04;78.27
70839;DHT22;58464;52.298;4.852;2022-11-15T10:39:23;13.20;78.05
70839;DHT22;58464;52.298;4.852;2022-11-15T10:41:49;13.13;77.87
70839;DHT22;58464;52.298;4.852;2022-11-15T10:44:18;13.33;77.49
70839;DHT22;58464;52.298;4.852;2022-11-15T10:47:20;13.41;76.98
70839;DHT22;58464;52.298;4.852;2022-11-15T10:49:58;13.64;76.35
70839;DHT22;58464;52.298;4.852;2022-11-15T10:52:24;13.58;76.31
70839;DHT22;58464;52.298;4.852;2022-11-15T10:54:58;13.50;75.95
70839;DHT22;58464;52.298;4.852;2022-11-15T10:57:29;13.64;75.81
70839;DHT22;58464;52.298;4.852;2022-11-15T11:00:03;13.75;74.97
70839;DHT22;58464;52.298;4.852;2022-11-15T11:02:35;13.74;74.87
70839;DHT22;58464;52.298;4.852;2022-11-15T11:05:06;13.83;74.76
70839;DHT22;58464;52.298;4.852;2022-11-15T11:07:34;13.83;74.53
70839;DHT22;58464;52.298;4.852;2022-11-15T11:10:20;13.88;73.98
70839;DHT22;58464;52.298;4.852;2022-11-15T11:12:46;13.99;73.77
70839;DHT22;58464;52.298;4.852;2022-11-15T11:15:14;13.98;73.75
70839;DHT22;58464;52.298;4.852;2022-11-15T11:20:39;14.16;72.52
70839;DHT22;58464;52.298;4.852;2022-11-15T11:26:15;14.05;73.22
70839;DHT22;58464;52.298;4.852;2022-11-15T11:28:53;14.04;73.23
70839;DHT22;58464;52.298;4.852;2022-11-15T11:34:15;13.86;73.15
70839;DHT22;58464;52.298;4.852;2022-11-15T11:42:22;13.47;74.44
70839;DHT22;58464;52.298;4.852;2022-11-15T11:47:30;13.65;73.85
70839;DHT22;58464;52.298;4.852;2022-11-15T11:50:28;13.85;73.25
70839;DHT22;58464;52.298;4.852;2022-11-15T11:53:12;13.86;72.97
70839;DHT22;58464;52.298;4.852;2022-11-15T11:55:43;13.79;72.74
70839;DHT22;58464;52.298;4.852;2022-11-15T11:58:14;13.88;72.50
70839;DHT22;58464;52.298;4.852;2022-11-15T12:00:46;14.02;71.85
70839;DHT22;58464;52.298;4.852;2022-11-15T12:03:25;14.15;71.21
70839;DHT22;58464;52.298;4.852;2022-11-15T12:05:57;14.08;71.21
70839;DHT22;58464;52.298;4.852;2022-11-15T12:08:49;14.13;71.15
70839;DHT22;58464;52.298;4.852;2022-11-15T12:11:35;14.22;71.15
70839;DHT22;58464;52.298;4.852;2022-11-15T12:14:09;14.25;70.57
70839;DHT22;58464;52.298;4.852;2022-11-15T12:16:38;14.12;70.85
70839;DHT22;58464;52.298;4.852;2022-11-15T12:19:04;13.94;70.87
70839;DHT22;58464;52.298;4.852;2022-11-15T12:24:15;13.99;70.78
70839;DHT22;58464;52.298;4.852;2022-11-15T12:26:49;13.92;71.40
70839;DHT22;58464;52.298;4.852;2022-11-15T12:29:22;14.02;70.37
70839;DHT22;58464;52.298;4.852;2022-11-15T12:31:51;13.98;70.71
70839;DHT22;58464;52.298;4.852;2022-11-15T12:36:47;13.97;70.40
70839;DHT22;58464;52.298;4.852;2022-11-15T12:39:14;13.95;70.42
70839;DHT22;58464;52.298;4.852;2022-11-15T12:44:58;14.08;70.18
70839;DHT22;58464;52.298;4.852;2022-11-15T13:00:00;14.32;68.92
70839;DHT22;58464;52.298;4.852;2022-11-15T13:07:57;14.59;67.33
70839;DHT22;58464;52.298;4.852;2022-11-15T13:17:52;14.63;66.41
70839;DHT22;58464;52.298;4.852;2022-11-15T13:23:13;14.90;65.92
70839;DHT22;58464;52.298;4.852;2022-11-15T13:28:39;14.95;65.75
70839;DHT22;58464;52.298;4.852;2022-11-15T13:31:31;14.92;65.51
70839;DHT22;58464;52.298;4.852;2022-11-15T13:34:03;14.88;65.62
70839;DHT22;58464;52.298;4.852;2022-11-15T13:36:39;14.74;66.10
70839;DHT22;58464;52.298;4.852;2022-11-15T13:39:12;14.56;66.00
70839;DHT22;58464;52.298;4.852;2022-11-15T13:41:48;14.66;66.04
70839;DHT22;58464;52.298;4.852;2022-11-15T13:44:26;14.51;66.02
70839;DHT22;58464;52.298;4.852;2022-11-15T13:47:09;14.29;66.19
70839;DHT22;58464;52.298;4.852;2022-11-15T13:49:37;14.10;66.74
70839;DHT22;58464;52.298;4.852;2022-11-15T13:52:09;13.95;67.09
70839;DHT22;58464;52.298;4.852;2022-11-15T13:54:58;13.88;67.07
70839;DHT22;58464;52.298;4.852;2022-11-15T13:57:26;13.88;67.32
70839;DHT22;58464;52.298;4.852;2022-11-15T14:00:01;13.82;67.48
70839;DHT22;58464;52.298;4.852;2022-11-15T14:02:29;13.68;67.63
70839;DHT22;58464;52.298;4.852;2022-11-15T14:04:57;13.58;67.79
70839;DHT22;58464;52.298;4.852;2022-11-15T14:07:26;13.53;68.06
70839;DHT22;58464;52.298;4.852;2022-11-15T14:09:52;13.46;68.29
70839;DHT22;58464;52.298;4.852;2022-11-15T14:12:26;13.41;68.61
70839;DHT22;58464;52.298;4.852;2022-11-15T14:14:52;13.33;69.09
70839;DHT22;58464;52.298;4.852;2022-11-15T14:19:55;13.23;70.01
70839;DHT22;58464;52.298;4.852;2022-11-15T14:22:23;13.11;70.42
70839;DHT22;58464;52.298;4.852;2022-11-15T14:25:14;13.00;70.70
70839;DHT22;58464;52.298;4.852;2022-11-15T14:27:44;12.96;71.05
70839;DHT22;58464;52.298;4.852;2022-11-15T14:30:18;12.89;71.53
70839;DHT22;58464;52.298;4.852;2022-11-15T14:32:48;12.88;71.51
70839;DHT22;58464;52.298;4.852;2022-11-15T14:35:22;12.82;71.60
70839;DHT22;58464;52.298;4.852;2022-11-15T14:37:48;12.85;71.79
70839;DHT22;58464;52.298;4.852;2022-11-15T14:40:19;12.85;71.82
70839;DHT22;58464;52.298;4.852;2022-11-15T14:42:46;12.73;72.24
70839;DHT22;58464;52.298;4.852;2022-11-15T14:45:17;12.71;72.33
70839;DHT22;58464;52.298;4.852;2022-11-15T14:47:43;12.69;72.19
70839;DHT22;58464;52.298;4.852;2022-11-15T14:50:13;12.72;72.30
70839;DHT22;58464;52.298;4.852;2022-11-15T14:52:39;12.62;72.13
70839;DHT22;58464;52.298;4.852;2022-11-15T14:57:41;12.59;72.43
70839;DHT22;58464;52.298;4.852;2022-11-15T15:00:07;12.65;72.10
70839;DHT22;58464;52.298;4.852;2022-11-15T15:02:34;12.62;72.20
70839;DHT22;58464;52.298;4.852;2022-11-15T15:04:59;12.61;72.48
70839;DHT22;58464;52.298;4.852;2022-11-15T15:07:27;12.59;72.34
70839;DHT22;58464;52.298;4.852;2022-11-15T15:09:53;12.56;72.52
70839;DHT22;58464;52.298;4.852;2022-11-15T15:12:20;12.51;72.85
70839;DHT22;58464;52.298;4.852;2022-11-15T15:14:47;12.46;73.11
70839;DHT22;58464;52.298;4.852;2022-11-15T15:17:13;12.46;73.41
70839;DHT22;58464;52.298;4.852;2022-11-15T15:19:39;12.46;73.25
70839;DHT22;58464;52.298;4.852;2022-11-15T15:22:04;12.48;73.01
70839;DHT22;58464;52.298;4.852;2022-11-15T15:24:30;12.37;73.37
70839;DHT22;58464;52.298;4.852;2022-11-15T15:26:56;12.32;73.49
70839;DHT22;58464;52.298;4.852;2022-11-15T15:29:21;12.35;73.46
70839;DHT22;58464;52.298;4.852;2022-11-15T15:31:47;12.34;73.30
70839;DHT22;58464;52.298;4.852;2022-11-15T15:34:12;12.34;73.21
70839;DHT22;58464;52.298;4.852;2022-11-15T15:36:37;12.31;73.21
70839;DHT22;58464;52.298;4.852;2022-11-15T15:39:03;12.35;73.08
70839;DHT22;58464;52.298;4.852;2022-11-15T15:41:28;12.35;72.81
70839;DHT22;58464;52.298;4.852;2022-11-15T15:43:54;12.32;73.18
70839;DHT22;58464;52.298;4.852;2022-11-15T15:46:20;12.37;72.51
70839;DHT22;58464;52.298;4.852;2022-11-15T15:48:46;12.35;72.52
70839;DHT22;58464;52.298;4.852;2022-11-15T15:51:12;12.37;72.64
70839;DHT22;58464;52.298;4.852;2022-11-15T15:53:37;12.37;72.07
70839;DHT22;58464;52.298;4.852;2022-11-15T15:56:05;12.40;71.94
70839;DHT22;58464;52.298;4.852;2022-11-15T15:58:33;12.38;72.04
70839;DHT22;58464;52.298;4.852;2022-11-15T16:00:58;12.40;71.94
70839;DHT22;58464;52.298;4.852;2022-11-15T16:03:24;12.45;71.82
70839;DHT22;58464;52.298;4.852;2022-11-15T16:05:50;12.45;71.46
70839;DHT22;58464;52.298;4.852;2022-11-15T16:08:20;12.46;71.45
70839;DHT22;58464;52.298;4.852;2022-11-15T16:10:46;12.46;71.47
70839;DHT22;58464;52.298;4.852;2022-11-15T16:13:12;12.42;71.60
70839;DHT22;58464;52.298;4.852;2022-11-15T16:15:41;12.45;71.42
70839;DHT22;58464;52.298;4.852;2022-11-15T16:18:14;12.46;71.67
70839;DHT22;58464;52.298;4.852;2022-11-15T16:20:44;12.49;71.62
70839;DHT22;58464;52.298;4.852;2022-11-15T16:23:12;12.49;71.28
70839;DHT22;58464;52.298;4.852;2022-11-15T16:28:04;12.49;71.54
70839;DHT22;58464;52.298;4.852;2022-11-15T16:30:29;12.55;71.49
70839;DHT22;58464;52.298;4.852;2022-11-15T16:32:55;12.56;71.11
70839;DHT22;58464;52.298;4.852;2022-11-15T16:35:20;12.65;70.67
70839;DHT22;58464;52.298;4.852;2022-11-15T16:37:46;12.68;70.81
70839;DHT22;58464;52.298;4.852;2022-11-15T16:42:49;12.69;71.18
70839;DHT22;58464;52.298;4.852;2022-11-15T16:45:15;12.66;71.21
70839;DHT22;58464;52.298;4.852;2022-11-15T16:47:40;12.65;72.39
70839;DHT22;58464;52.298;4.852;2022-11-15T16:50:30;12.65;72.86
70839;DHT22;58464;52.298;4.852;2022-11-15T16:52:56;12.59;73.08
70839;DHT22;58464;52.298;4.852;2022-11-15T16:55:27;12.49;73.92
70839;DHT22;58464;52.298;4.852;2022-11-15T16:57:54;12.45;74.62
70839;DHT22;58464;52.298;4.852;2022-11-15T17:00:20;12.35;75.12
70839;DHT22;58464;52.298;4.852;2022-11-15T17:02:47;12.24;76.38
70839;DHT22;58464;52.298;4.852;2022-11-15T17:05:14;12.21;77.10
70839;DHT22;58464;52.298;4.852;2022-11-15T17:07:40;12.14;77.42
70839;DHT22;58464;52.298;4.852;2022-11-15T17:10:08;12.05;78.03
70839;DHT22;58464;52.298;4.852;2022-11-15T17:12:34;12.01;78.34
70839;DHT22;58464;52.298;4.852;2022-11-15T17:15:00;11.97;78.81
70839;DHT22;58464;52.298;4.852;2022-11-15T17:17:26;11.91;79.06
70839;DHT22;58464;52.298;4.852;2022-11-15T17:19:52;11.90;79.67
70839;DHT22;58464;52.298;4.852;2022-11-15T17:22:21;11.87;79.68
70839;DHT22;58464;52.298;4.852;2022-11-15T17:24:46;11.79;80.27
70839;DHT22;58464;52.298;4.852;2022-11-15T17:27:12;11.77;81.06